Time,TemperatureF,DewpointF,PressureIn,WindDirection,WindDirectionDegrees,WindSpeedMPH,WindSpeedGustMPH,Humidity,HourlyPrecipIn,Conditions,Clouds,dailyrainin,SoftwareType,DateUTC
2013-09-25 00:02:00,60.9,58.3,29.86,NW,306,0.0,0.0,91,0.00,,---,0.00,VWS V14.00,2013-09-25 05:02:00,
2013-09-25 00:07:00,60.7,58.1,29.86,NW,306,0.0,0.0,91,0.00,,---,0.00,VWS V14.00,2013-09-25 05:07:00,
2013-09-25 00:12:00,60.7,58.1,29.86,NW,306,0.0,0.0,91,0.00,,---,0.00,VWS V14.00,2013-09-25 05:12:00,
2013-09-25 00:16:00,60.5,57.9,29.86,NW,306,0.0,0.0,91,0.00,,---,0.00,VWS V14.00,2013-09-25 05:16:00,
2013-09-25 00:21:00,60.5,58.2,29.86,NW,306,0.0,0.0,92,0.00,,---,0.00,VWS V14.00,2013-09-25 05:21:00,
2013-09-25 00:26:00,60.4,58.1,29.86,NW,306,0.0,0.0,92,0.00,,---,0.00,VWS V14.00,2013-09-25 05:26:00,
2013-09-25 00:31:00,60.4,58.1,29.86,NW,306,0.0,0.0,92,0.00,,---,0.00,VWS V14.00,2013-09-25 05:31:00,
2013-09-25 00:36:00,60.2,57.9,29.86,NW,306,0.0,0.0,92,0.00,,---,0.00,VWS V14.00,2013-09-25 05:36:00,
2013-09-25 00:41:00,60.2,57.9,29.86,NW,306,0.0,0.0,92,0.00,,---,0.00,VWS V14.00,2013-09-25 05:41:00,
2013-09-25 00:46:00,60.2,57.9,29.86,NW,306,0.0,0.0,92,0.00,,---,0.00,VWS V14.00,2013-09-25 05:46:00,
2013-09-25 00:51:00,59.9,57.6,29.86,NW,306,0.0,0.0,92,0.00,,---,0.00,VWS V14.00,2013-09-25 05:51:00,
2013-09-25 00:56:00,59.6,57.3,29.86,NW,306,0.0,0.0,92,0.00,,---,0.00,VWS V14.00,2013-09-25 05:56:00,
2013-09-25 01:01:00,59.5,57.2,29.86,NW,306,0.0,0.0,92,0.00,,---,0.00,VWS V14.00,2013-09-25 06:01:00,
2013-09-25 01:06:00,59.3,57.0,29.85,NW,306,0.0,0.0,92,0.00,,---,0.00,VWS V14.00,2013-09-25 06:06:00,
2013-09-25 01:11:00,59.3,57.0,29.85,NW,306,0.0,0.0,92,0.00,,---,0.00,VWS V14.00,2013-09-25 06:11:00,
2013-09-25 01:16:00,59.3,57.0,29.85,NW,306,0.0,0.0,92,0.00,,---,0.00,VWS V14.00,2013-09-25 06:16:00,
2013-09-25 01:21:00,59.3,57.0,29.85,NW,306,0.0,0.0,92,0.00,,---,0.00,VWS V14.00,2013-09-25 06:21:00,
2013-09-25 01:26:00,59.2,56.9,29.85,NW,306,0.0,0.0,92,0.00,,---,0.00,VWS V14.00,2013-09-25 06:26:00,
2013-09-25 01:31:00,59.0,56.7,29.85,NW,306,0.0,0.0,92,0.00,,---,0.00,VWS V14.00,2013-09-25 06:31:00,
2013-09-25 01:36:00,59.2,57.2,29.85,NW,306,0.0,0.0,93,0.00,,---,0.00,VWS V14.00,2013-09-25 06:36:00,
2013-09-25 01:41:00,59.2,57.2,29.85,NW,306,0.0,0.0,93,0.00,,---,0.00,VWS V14.00,2013-09-25 06:41:00,
2013-09-25 01:46:00,59.0,56.7,29.85,NW,306,0.0,0.0,92,0.00,,---,0.00,VWS V14.00,2013-09-25 06:46:00,
2013-09-25 01:51:00,58.9,56.6,29.85,NW,306,0.0,0.0,92,0.00,,---,0.00,VWS V14.00,2013-09-25 06:51:00,
2013-09-25 01:56:00,58.9,56.9,29.85,NW,306,0.0,0.0,93,0.00,,---,0.00,VWS V14.00,2013-09-25 06:56:00,
2013-09-25 02:01:00,59.0,57.0,29.86,NW,306,0.0,0.0,93,0.00,,---,0.00,VWS V14.00,2013-09-25 07:01:00,
2013-09-25 02:06:00,58.9,56.9,29.86,NW,306,0.0,0.0,93,0.00,,---,0.00,VWS V14.00,2013-09-25 07:06:00,
2013-09-25 02:11:00,58.9,56.9,29.86,NW,306,0.0,0.0,93,0.00,,---,0.00,VWS V14.00,2013-09-25 07:11:00,
2013-09-25 02:16:00,58.9,56.9,29.85,NW,306,0.0,0.0,93,0.00,,---,0.00,VWS V14.00,2013-09-25 07:16:00,
2013-09-25 02:21:00,58.7,56.7,29.85,NW,306,0.0,0.0,93,0.00,,---,0.00,VWS V14.00,2013-09-25 07:21:00,
2013-09-25 02:26:00,58.7,56.7,29.85,NW,306,0.0,0.0,93,0.00,,---,0.00,VWS V14.00,2013-09-25 07:26:00,
2013-09-25 02:31:00,58.6,56.6,29.84,NW,306,0.0,0.0,93,0.00,,---,0.00,VWS V14.00,2013-09-25 07:31:00,
2013-09-25 02:36:00,58.6,56.6,29.85,NW,306,0.0,0.0,93,0.00,,---,0.00,VWS V14.00,2013-09-25 07:36:00,
2013-09-25 02:41:00,58.6,56.6,29.84,NW,306,0.0,0.0,93,0.00,,---,0.00,VWS V14.00,2013-09-25 07:41:00,
2013-09-25 02:46:00,58.6,56.6,29.84,NW,306,0.0,0.0,93,0.00,,---,0.00,VWS V14.00,2013-09-25 07:46:00,
2013-09-25 02:51:00,58.6,56.6,29.84,NW,306,0.0,0.0,93,0.00,,---,0.00,VWS V14.00,2013-09-25 07:51:00,
2013-09-25 02:56:00,58.6,56.6,29.84,NW,306,0.0,0.0,93,0.00,,---,0.00,VWS V14.00,2013-09-25 07:56:00,
2013-09-25 03:01:00,58.6,56.6,29.84,NW,306,0.0,0.0,93,0.00,,---,0.00,VWS V14.00,2013-09-25 08:01:00,
2013-09-25 03:06:00,58.4,56.4,29.85,NW,306,0.0,0.0,93,0.00,,---,0.00,VWS V14.00,2013-09-25 08:06:00,
2013-09-25 03:11:00,58.4,56.4,29.85,NW,306,0.0,0.0,93,0.00,,---,0.00,VWS V14.00,2013-09-25 08:11:00,
2013-09-25 03:16:00,58.4,56.4,29.85,NW,306,0.0,0.0,93,0.00,,---,0.00,VWS V14.00,2013-09-25 08:16:00,
2013-09-25 03:21:00,58.3,56.3,29.85,NW,306,0.0,0.0,93,0.00,,---,0.00,VWS V14.00,2013-09-25 08:21:00,
2013-09-25 03:26:00,58.3,56.3,29.85,NW,306,0.0,0.0,93,0.00,,---,0.00,VWS V14.00,2013-09-25 08:26:00,
2013-09-25 03:31:00,58.3,56.6,29.85,NW,306,0.0,0.0,94,0.00,,---,0.00,VWS V14.00,2013-09-25 08:31:00,
2013-09-25 03:36:00,58.1,56.4,29.85,NW,306,0.0,0.0,94,0.00,,---,0.00,VWS V14.00,2013-09-25 08:36:00,
2013-09-25 03:41:00,58.0,56.0,29.85,NW,306,0.0,0.0,93,0.00,,---,0.00,VWS V14.00,2013-09-25 08:41:00,
2013-09-25 03:46:00,57.8,55.8,29.85,NW,306,0.0,0.0,93,0.00,,---,0.00,VWS V14.00,2013-09-25 08:46:00,
2013-09-25 03:51:00,57.6,55.6,29.85,NW,306,0.0,0.0,93,0.00,,---,0.00,VWS V14.00,2013-09-25 08:51:00,
2013-09-25 03:56:00,57.3,55.3,29.85,NW,306,0.0,0.0,93,0.00,,---,0.00,VWS V14.00,2013-09-25 08:56:00,
2013-09-25 04:01:00,57.3,55.6,29.85,NW,306,0.0,0.0,94,0.00,,---,0.00,VWS V14.00,2013-09-25 09:01:00,
2013-09-25 04:06:00,57.5,55.8,29.85,NW,306,0.0,0.0,94,0.00,,---,0.00,VWS V14.00,2013-09-25 09:06:00,
2013-09-25 04:11:00,57.3,55.6,29.85,NW,306,0.0,0.0,94,0.00,,---,0.00,VWS V14.00,2013-09-25 09:11:00,
2013-09-25 04:16:00,57.6,55.9,29.85,NW,306,0.0,0.0,94,0.00,,---,0.00,VWS V14.00,2013-09-25 09:16:00,
2013-09-25 04:21:00,57.6,55.9,29.85,NW,306,0.0,0.0,94,0.00,,---,0.00,VWS V14.00,2013-09-25 09:21:00,
2013-09-25 04:26:00,57.5,55.8,29.85,NW,306,0.0,0.0,94,0.00,,---,0.00,VWS V14.00,2013-09-25 09:26:00,
2013-09-25 04:31:00,57.5,55.8,29.85,NW,306,0.0,0.0,94,0.00,,---,0.00,VWS V14.00,2013-09-25 09:31:00,
2013-09-25 04:36:00,57.5,55.8,29.85,NW,306,0.0,0.0,94,0.00,,---,0.00,VWS V14.00,2013-09-25 09:36:00,
2013-09-25 04:41:00,57.3,55.6,29.85,NW,306,0.0,0.0,94,0.00,,---,0.00,VWS V14.00,2013-09-25 09:41:00,
2013-09-25 04:46:00,57.3,55.6,29.85,NW,306,0.0,0.0,94,0.00,,---,0.00,VWS V14.00,2013-09-25 09:46:00,
2013-09-25 04:51:00,57.2,55.5,29.85,NW,306,0.0,0.0,94,0.00,,---,0.00,VWS V14.00,2013-09-25 09:51:00,
2013-09-25 04:56:00,57.0,55.3,29.86,NW,306,0.0,0.0,94,0.00,,---,0.00,VWS V14.00,2013-09-25 09:56:00,
2013-09-25 05:01:00,56.9,55.2,29.86,NW,306,0.0,0.0,94,0.00,,---,0.00,VWS V14.00,2013-09-25 10:01:00,
2013-09-25 05:06:00,56.9,55.2,29.86,NW,306,0.0,0.0,94,0.00,,---,0.00,VWS V14.00,2013-09-25 10:06:00,
2013-09-25 05:11:00,56.7,55.0,29.86,NW,306,0.0,0.0,94,0.00,,---,0.00,VWS V14.00,2013-09-25 10:11:00,
2013-09-25 05:16:00,56.6,54.9,29.86,NW,306,0.0,0.0,94,0.00,,---,0.00,VWS V14.00,2013-09-25 10:16:00,
2013-09-25 05:21:00,56.6,54.9,29.86,NW,306,0.0,0.0,94,0.00,,---,0.00,VWS V14.00,2013-09-25 10:21:00,
2013-09-25 05:26:00,56.5,54.8,29.86,NW,306,0.0,0.0,94,0.00,,---,0.00,VWS V14.00,2013-09-25 10:26:00,
2013-09-25 05:31:00,56.3,54.6,29.87,NW,306,0.0,0.0,94,0.00,,---,0.00,VWS V14.00,2013-09-25 10:31:00,
2013-09-25 05:36:00,56.2,54.8,29.87,NW,306,0.0,0.0,95,0.00,,---,0.00,VWS V14.00,2013-09-25 10:36:00,
2013-09-25 05:41:00,56.2,54.8,29.87,NW,306,0.0,0.0,95,0.00,,---,0.00,VWS V14.00,2013-09-25 10:41:00,
2013-09-25 05:46:00,56.2,54.8,29.87,NW,306,0.0,0.0,95,0.00,,---,0.00,VWS V14.00,2013-09-25 10:46:00,
2013-09-25 05:51:00,56.0,54.6,29.87,NW,306,0.0,0.0,95,0.00,,---,0.00,VWS V14.00,2013-09-25 10:51:00,
2013-09-25 05:56:00,55.7,54.3,29.87,NW,306,0.0,0.0,95,0.00,,---,0.00,VWS V14.00,2013-09-25 10:56:00,
2013-09-25 06:01:00,55.7,54.3,29.87,NW,306,0.0,0.0,95,0.00,,---,0.00,VWS V14.00,2013-09-25 11:01:00,
2013-09-25 06:06:00,55.6,54.2,29.87,NW,306,0.0,0.0,95,0.00,,---,0.00,VWS V14.00,2013-09-25 11:06:00,
2013-09-25 06:11:00,55.6,54.2,29.88,NW,306,0.0,0.0,95,0.00,,---,0.00,VWS V14.00,2013-09-25 11:11:00,
2013-09-25 06:16:00,55.6,54.2,29.87,NW,306,0.0,0.0,95,0.00,,---,0.00,VWS V14.00,2013-09-25 11:16:00,
2013-09-25 06:21:00,55.4,54.0,29.87,NW,306,0.0,0.0,95,0.00,,---,0.00,VWS V14.00,2013-09-25 11:21:00,
2013-09-25 06:26:00,55.4,54.0,29.88,NW,306,0.0,0.0,95,0.00,,---,0.00,VWS V14.00,2013-09-25 11:26:00,
2013-09-25 06:31:00,55.1,53.7,29.88,NW,306,0.0,0.0,95,0.00,,---,0.00,VWS V14.00,2013-09-25 11:31:00,
2013-09-25 06:36:00,55.0,53.6,29.87,NW,306,0.0,0.0,95,0.00,,---,0.00,VWS V14.00,2013-09-25 11:36:00,
2013-09-25 06:41:00,55.0,53.6,29.87,NW,306,0.0,0.0,95,0.00,,---,0.00,VWS V14.00,2013-09-25 11:41:00,
2013-09-25 06:46:00,54.8,53.4,29.87,NW,306,0.0,0.0,95,0.00,,---,0.00,VWS V14.00,2013-09-25 11:46:00,
2013-09-25 06:51:00,54.7,53.3,29.88,NW,306,0.0,0.0,95,0.00,,---,0.00,VWS V14.00,2013-09-25 11:51:00,
2013-09-25 06:56:00,54.5,53.1,29.88,NW,306,0.0,0.0,95,0.00,,---,0.00,VWS V14.00,2013-09-25 11:56:00,
2013-09-25 07:01:00,54.5,53.1,29.88,NW,306,0.0,0.0,95,0.00,,---,0.00,VWS V14.00,2013-09-25 12:01:00,
2013-09-25 07:06:00,54.4,53.3,29.88,NW,306,0.0,0.0,96,0.00,,---,0.00,VWS V14.00,2013-09-25 12:06:00,
2013-09-25 07:11:00,54.5,53.4,29.88,NW,306,0.0,0.0,96,0.00,,---,0.00,VWS V14.00,2013-09-25 12:11:00,
2013-09-25 07:16:00,54.5,53.4,29.89,NW,306,0.0,0.0,96,0.00,,---,0.00,VWS V14.00,2013-09-25 12:16:00,
2013-09-25 07:21:00,54.5,53.4,29.89,NW,306,0.0,0.0,96,0.00,,---,0.00,VWS V14.00,2013-09-25 12:21:00,
2013-09-25 07:26:00,54.5,53.4,29.89,NW,306,0.0,0.0,96,0.00,,---,0.00,VWS V14.00,2013-09-25 12:26:00,
2013-09-25 07:27:00,54.5,53.4,29.89,NW,306,0.0,0.0,96,0.00,,---,0.00,VWS V14.00,2013-09-25 12:27:00,
2013-09-25 07:32:00,54.4,53.3,29.89,NW,306,0.0,0.0,96,0.00,,---,0.00,VWS V14.00,2013-09-25 12:32:00,
2013-09-25 07:37:00,54.4,53.3,29.89,NW,306,0.0,0.0,96,0.00,,---,0.00,VWS V14.00,2013-09-25 12:37:00,
2013-09-25 07:42:00,54.5,53.4,29.89,NW,306,0.0,0.0,96,0.00,,---,0.00,VWS V14.00,2013-09-25 12:42:00,
2013-09-25 07:47:00,54.7,53.6,29.89,NW,306,0.0,0.0,96,0.00,,---,0.00,VWS V14.00,2013-09-25 12:47:00,
2013-09-25 07:52:00,54.7,53.6,29.89,NW,306,0.0,0.0,96,0.00,,---,0.00,VWS V14.00,2013-09-25 12:52:00,
2013-09-25 07:57:00,54.8,53.7,29.89,NW,306,0.0,0.0,96,0.00,,---,0.00,VWS V14.00,2013-09-25 12:57:00,
2013-09-25 08:02:00,55.1,54.0,29.89,NW,306,0.0,0.0,96,0.00,,---,0.00,VWS V14.00,2013-09-25 13:02:00,
2013-09-25 08:07:00,55.3,54.2,29.90,NW,306,0.0,0.0,96,0.00,,---,0.00,VWS V14.00,2013-09-25 13:07:00,
2013-09-25 08:12:00,55.7,54.6,29.90,NW,306,0.0,0.0,96,0.00,,---,0.00,VWS V14.00,2013-09-25 13:12:00,
2013-09-25 08:17:00,56.3,55.2,29.90,NW,306,0.0,0.0,96,0.00,,---,0.00,VWS V14.00,2013-09-25 13:17:00,
2013-09-25 08:22:00,56.6,55.5,29.90,NW,306,0.0,0.0,96,0.00,,---,0.00,VWS V14.00,2013-09-25 13:22:00,
2013-09-25 08:27:00,57.0,55.9,29.90,NW,306,0.0,0.0,96,0.00,,---,0.00,VWS V14.00,2013-09-25 13:27:00,
2013-09-25 08:32:00,57.8,56.7,29.89,NW,306,0.0,0.0,96,0.00,,---,0.00,VWS V14.00,2013-09-25 13:32:00,
2013-09-25 08:37:00,58.3,57.2,29.90,NW,306,0.0,0.0,96,0.00,,---,0.00,VWS V14.00,2013-09-25 13:37:00,
2013-09-25 08:42:00,58.9,57.8,29.90,NW,306,0.0,0.0,96,0.00,,---,0.00,VWS V14.00,2013-09-25 13:42:00,
2013-09-25 08:47:00,59.8,58.4,29.90,NW,306,0.0,0.0,95,0.00,,---,0.00,VWS V14.00,2013-09-25 13:47:00,
2013-09-25 08:52:00,59.3,57.6,29.90,NW,306,0.0,0.0,94,0.00,,---,0.00,VWS V14.00,2013-09-25 13:52:00,
2013-09-25 08:57:00,59.6,57.9,29.89,NW,306,0.0,0.0,94,0.00,,---,0.00,VWS V14.00,2013-09-25 13:57:00,
2013-09-25 09:02:00,59.8,58.1,29.89,NW,306,0.0,0.0,94,0.00,,---,0.00,VWS V14.00,2013-09-25 14:02:00,
2013-09-25 09:07:00,60.4,58.4,29.90,NW,306,0.0,0.0,93,0.00,,---,0.00,VWS V14.00,2013-09-25 14:07:00,
2013-09-25 09:12:00,61.2,59.2,29.90,NW,306,0.0,0.0,93,0.00,,---,0.00,VWS V14.00,2013-09-25 14:12:00,
2013-09-25 09:17:00,61.8,59.5,29.90,NW,306,0.0,0.0,92,0.00,,---,0.00,VWS V14.00,2013-09-25 14:17:00,
2013-09-25 09:22:00,62.4,59.7,29.90,NW,306,0.0,0.0,91,0.00,,---,0.00,VWS V14.00,2013-09-25 14:22:00,
2013-09-25 09:27:00,62.6,59.6,29.90,NW,306,0.0,0.0,90,0.00,,---,0.00,VWS V14.00,2013-09-25 14:27:00,
2013-09-25 09:32:00,62.7,59.7,29.90,NW,306,0.0,0.0,90,0.00,,---,0.00,VWS V14.00,2013-09-25 14:32:00,
2013-09-25 09:37:00,63.2,59.9,29.90,NW,306,0.0,0.0,89,0.00,,---,0.00,VWS V14.00,2013-09-25 14:37:00,
2013-09-25 09:42:00,64.3,60.3,29.90,NW,306,0.0,0.0,87,0.00,,---,0.00,VWS V14.00,2013-09-25 14:42:00,
2013-09-25 09:47:00,65.0,60.7,29.90,NW,306,0.0,0.0,86,0.00,,---,0.00,VWS V14.00,2013-09-25 14:47:00,
2013-09-25 09:52:00,65.5,61.2,29.90,NW,306,0.0,0.0,86,0.00,,---,0.00,VWS V14.00,2013-09-25 14:52:00,
2013-09-25 09:57:00,65.3,60.7,29.90,NW,306,0.0,0.0,85,0.00,,---,0.00,VWS V14.00,2013-09-25 14:57:00,
2013-09-25 10:02:00,65.5,61.2,29.90,NW,306,0.0,0.0,86,0.00,,---,0.00,VWS V14.00,2013-09-25 15:02:00,
2013-09-25 10:07:00,65.8,61.2,29.90,NW,306,0.0,0.0,85,0.00,,---,0.00,VWS V14.00,2013-09-25 15:07:00,
2013-09-25 10:12:00,66.3,61.7,29.90,NW,306,0.0,0.0,85,0.00,,---,0.00,VWS V14.00,2013-09-25 15:12:00,
2013-09-25 10:17:00,66.6,61.6,29.90,NW,306,0.0,0.0,84,0.00,,---,0.00,VWS V14.00,2013-09-25 15:17:00,
2013-09-25 10:22:00,67.1,61.8,29.90,NW,306,0.0,0.0,83,0.00,,---,0.00,VWS V14.00,2013-09-25 15:22:00,
2013-09-25 10:27:00,67.6,61.9,29.90,NW,306,0.0,0.0,82,0.00,,---,0.00,VWS V14.00,2013-09-25 15:27:00,
2013-09-25 10:32:00,68.4,62.7,29.90,NW,306,0.0,0.0,82,0.00,,---,0.00,VWS V14.00,2013-09-25 15:32:00,
2013-09-25 10:37:00,69.3,62.9,29.90,NW,306,0.0,0.0,80,0.00,,---,0.00,VWS V14.00,2013-09-25 15:37:00,
2013-09-25 10:42:00,69.6,63.2,29.90,NW,306,0.0,0.0,80,0.00,,---,0.00,VWS V14.00,2013-09-25 15:42:00,
2013-09-25 10:47:00,69.9,63.1,29.90,NW,306,0.0,0.0,79,0.00,,---,0.00,VWS V14.00,2013-09-25 15:47:00,
2013-09-25 10:52:00,69.4,62.2,29.90,NW,306,0.0,0.0,78,0.00,,---,0.00,VWS V14.00,2013-09-25 15:52:00,
2013-09-25 10:57:00,69.1,62.0,29.90,NW,306,0.0,0.0,78,0.00,,---,0.00,VWS V14.00,2013-09-25 15:57:00,
2013-09-25 11:02:00,69.1,61.6,29.90,NW,318,9.0,10.0,77,0.00,,---,0.00,VWS V14.00,2013-09-25 16:02:00,
2013-09-25 11:07:00,69.3,61.8,29.90,NW,321,0.0,0.0,77,0.00,,---,0.00,VWS V14.00,2013-09-25 16:07:00,
2013-09-25 11:12:00,69.6,61.3,29.90,NW,315,8.0,11.0,75,0.00,,---,0.00,VWS V14.00,2013-09-25 16:12:00,
2013-09-25 11:17:00,69.8,61.2,29.90,NNW,330,6.0,6.0,74,0.00,,---,0.00,VWS V14.00,2013-09-25 16:17:00,
2013-09-25 11:22:00,69.9,61.2,29.90,NW,323,8.0,10.0,74,0.00,,---,0.00,VWS V14.00,2013-09-25 16:22:00,
2013-09-25 11:27:00,70.3,61.2,29.89,NNW,329,4.0,4.0,73,0.00,,---,0.00,VWS V14.00,2013-09-25 16:27:00,
2013-09-25 11:32:00,70.4,61.7,29.89,NNW,335,5.0,10.0,74,0.00,,---,0.00,VWS V14.00,2013-09-25 16:32:00,
2013-09-25 11:37:00,70.8,60.9,29.88,NW,321,4.0,9.0,71,0.00,,---,0.00,VWS V14.00,2013-09-25 16:37:00,
2013-09-25 11:42:00,70.8,60.5,29.88,NNW,338,8.0,11.0,70,0.00,,---,0.00,VWS V14.00,2013-09-25 16:42:00,
2013-09-25 11:47:00,71.1,60.8,29.88,NNW,335,8.0,9.0,70,0.00,,---,0.00,VWS V14.00,2013-09-25 16:47:00,
2013-09-25 11:52:00,71.1,60.8,29.88,NNW,337,3.0,4.0,70,0.00,,---,0.00,VWS V14.00,2013-09-25 16:52:00,
2013-09-25 11:57:00,71.3,60.2,29.88,NNW,329,9.0,9.0,68,0.00,,---,0.00,VWS V14.00,2013-09-25 16:57:00,
2013-09-25 12:02:00,71.6,60.5,29.88,NNW,330,3.0,3.0,68,0.00,,---,0.00,VWS V14.00,2013-09-25 17:02:00,
2013-09-25 12:07:00,72.0,60.5,29.88,NW,317,6.0,7.0,67,0.00,,---,0.00,VWS V14.00,2013-09-25 17:07:00,
2013-09-25 12:12:00,72.1,60.5,29.88,NW,317,4.0,6.0,67,0.00,,---,0.00,VWS V14.00,2013-09-25 17:12:00,
2013-09-25 12:17:00,72.5,60.9,29.88,NW,314,0.0,1.0,67,0.00,,---,0.00,VWS V14.00,2013-09-25 17:17:00,
2013-09-25 12:22:00,72.7,61.1,29.88,NW,315,0.0,0.0,67,0.00,,---,0.00,VWS V14.00,2013-09-25 17:22:00,
2013-09-25 12:27:00,73.0,60.5,29.88,NW,315,2.0,4.0,65,0.00,,---,0.00,VWS V14.00,2013-09-25 17:27:00,
2013-09-25 12:32:00,73.2,60.7,29.88,NW,321,5.0,6.0,65,0.00,,---,0.00,VWS V14.00,2013-09-25 17:32:00,
2013-09-25 12:37:00,73.2,60.3,29.88,NW,321,0.0,0.0,64,0.00,,---,0.00,VWS V14.00,2013-09-25 17:37:00,
2013-09-25 12:42:00,73.5,60.2,29.87,NW,321,5.0,5.0,63,0.00,,---,0.00,VWS V14.00,2013-09-25 17:42:00,
2013-09-25 12:47:00,73.7,60.3,29.87,NW,324,1.0,3.0,63,0.00,,---,0.00,VWS V14.00,2013-09-25 17:47:00,
2013-09-25 12:52:00,73.9,60.5,29.87,NW,324,0.0,0.0,63,0.00,,---,0.00,VWS V14.00,2013-09-25 17:52:00,
2013-09-25 12:57:00,74.0,60.6,29.87,NW,325,1.0,3.0,63,0.00,,---,0.00,VWS V14.00,2013-09-25 17:57:00,
2013-09-25 13:02:00,74.2,60.4,29.87,NNW,327,1.0,3.0,62,0.00,,---,0.00,VWS V14.00,2013-09-25 18:02:00,
2013-09-25 13:07:00,74.4,60.5,29.87,NNW,327,3.0,4.0,62,0.00,,---,0.00,VWS V14.00,2013-09-25 18:07:00,
2013-09-25 13:12:00,74.4,60.1,29.87,NW,325,7.0,9.0,61,0.00,,---,0.00,VWS V14.00,2013-09-25 18:12:00,
2013-09-25 13:17:00,74.6,59.8,29.86,NNW,333,7.0,7.0,60,0.00,,---,0.00,VWS V14.00,2013-09-25 18:17:00,
2013-09-25 13:22:00,74.6,59.3,29.86,NNW,328,4.0,6.0,59,0.00,,---,0.00,VWS V14.00,2013-09-25 18:22:00,
2013-09-25 13:27:00,74.9,59.6,29.86,NNW,327,3.0,5.0,59,0.00,,---,0.00,VWS V14.00,2013-09-25 18:27:00,
2013-09-25 13:32:00,74.9,60.1,29.86,NNW,333,2.0,3.0,60,0.00,,---,0.00,VWS V14.00,2013-09-25 18:32:00,
2013-09-25 13:37:00,75.1,59.8,29.86,NNW,333,0.0,0.0,59,0.00,,---,0.00,VWS V14.00,2013-09-25 18:37:00,
2013-09-25 13:42:00,75.8,60.9,29.86,NNW,333,4.0,5.0,60,0.00,,---,0.00,VWS V14.00,2013-09-25 18:42:00,
2013-09-25 13:47:00,75.8,60.5,29.86,NNW,334,0.0,0.0,59,0.00,,---,0.00,VWS V14.00,2013-09-25 18:47:00,
2013-09-25 13:52:00,76.3,60.9,29.85,NNW,334,0.0,1.0,59,0.00,,---,0.00,VWS V14.00,2013-09-25 18:52:00,
2013-09-25 13:57:00,76.1,60.3,29.85,NNW,335,0.0,0.0,58,0.00,,---,0.00,VWS V14.00,2013-09-25 18:57:00,
2013-09-25 14:02:00,76.0,60.2,29.85,NNW,335,5.0,5.0,58,0.00,,---,0.00,VWS V14.00,2013-09-25 19:02:00,
2013-09-25 14:07:00,76.1,60.3,29.85,NNW,335,0.0,1.0,58,0.00,,---,0.00,VWS V14.00,2013-09-25 19:07:00,
2013-09-25 14:12:00,76.3,60.0,29.85,NNW,335,0.0,1.0,57,0.00,,---,0.00,VWS V14.00,2013-09-25 19:12:00,
2013-09-25 14:17:00,76.0,60.2,29.84,NNW,335,0.0,0.0,58,0.00,,---,0.00,VWS V14.00,2013-09-25 19:17:00,
2013-09-25 14:22:00,76.3,60.5,29.84,NNW,334,8.0,8.0,58,0.00,,---,0.00,VWS V14.00,2013-09-25 19:22:00,
2013-09-25 14:27:00,76.3,60.0,29.84,NNW,335,0.0,0.0,57,0.00,,---,0.00,VWS V14.00,2013-09-25 19:27:00,
2013-09-25 14:32:00,76.0,60.2,29.84,NNW,335,0.0,1.0,58,0.00,,---,0.00,VWS V14.00,2013-09-25 19:32:00,
2013-09-25 14:37:00,76.0,60.7,29.84,NNW,336,3.0,4.0,59,0.00,,---,0.00,VWS V14.00,2013-09-25 19:37:00,
2013-09-25 14:42:00,76.3,60.0,29.84,NNW,342,0.0,0.0,57,0.00,,---,0.00,VWS V14.00,2013-09-25 19:42:00,
2013-09-25 14:47:00,76.7,59.8,29.84,NNW,342,0.0,0.0,56,0.00,,---,0.00,VWS V14.00,2013-09-25 19:47:00,
2013-09-25 14:52:00,76.8,60.4,29.84,NNW,340,5.0,5.0,57,0.00,,---,0.00,VWS V14.00,2013-09-25 19:52:00,
2013-09-25 14:57:00,76.8,59.4,29.83,NNW,340,0.0,4.0,55,0.00,,---,0.00,VWS V14.00,2013-09-25 19:57:00,
2013-09-25 15:02:00,77.0,59.6,29.83,NNW,340,0.0,0.0,55,0.00,,---,0.00,VWS V14.00,2013-09-25 20:02:00,
2013-09-25 15:07:00,77.2,59.8,29.84,NNW,340,0.0,0.0,55,0.00,,---,0.00,VWS V14.00,2013-09-25 20:07:00,
2013-09-25 15:12:00,77.4,60.0,29.84,NNW,340,1.0,2.0,55,0.00,,---,0.00,VWS V14.00,2013-09-25 20:12:00,
2013-09-25 15:17:00,77.4,59.5,29.83,NNW,331,3.0,4.0,54,0.00,,---,0.00,VWS V14.00,2013-09-25 20:17:00,
2013-09-25 15:22:00,77.2,59.3,29.83,NNW,333,4.0,4.0,54,0.00,,---,0.00,VWS V14.00,2013-09-25 20:22:00,
2013-09-25 15:27:00,77.2,59.3,29.83,NNW,333,0.0,0.0,54,0.00,,---,0.00,VWS V14.00,2013-09-25 20:27:00,
2013-09-25 15:32:00,77.2,58.8,29.83,NNW,333,2.0,6.0,53,0.00,,---,0.00,VWS V14.00,2013-09-25 20:32:00,
2013-09-25 15:37:00,77.4,59.0,29.83,NNW,333,2.0,3.0,53,0.00,,---,0.00,VWS V14.00,2013-09-25 20:37:00,
2013-09-25 15:42:00,77.6,60.2,29.83,NNW,333,3.0,4.0,55,0.00,,---,0.00,VWS V14.00,2013-09-25 20:42:00,
2013-09-25 15:46:00,77.4,59.5,29.83,NNW,333,0.0,0.0,54,0.00,,---,0.00,VWS V14.00,2013-09-25 20:46:00,
2013-09-25 15:51:00,77.0,58.6,29.83,NNW,333,0.0,0.0,53,0.00,,---,0.00,VWS V14.00,2013-09-25 20:51:00,
2013-09-25 15:56:00,76.8,58.4,29.83,NNW,333,0.0,0.0,53,0.00,,---,0.00,VWS V14.00,2013-09-25 20:56:00,
2013-09-25 16:01:00,77.4,60.0,29.83,NNW,333,0.0,0.0,55,0.00,,---,0.00,VWS V14.00,2013-09-25 21:01:00,
2013-09-25 16:06:00,77.9,59.4,29.83,NNW,333,2.0,5.0,53,0.00,,---,0.00,VWS V14.00,2013-09-25 21:06:00,
2013-09-25 16:11:00,78.1,59.6,29.83,NNW,333,3.0,6.0,53,0.00,,---,0.00,VWS V14.00,2013-09-25 21:11:00,
2013-09-25 16:16:00,77.9,58.9,29.83,NNW,333,0.0,0.0,52,0.00,,---,0.00,VWS V14.00,2013-09-25 21:16:00,
2013-09-25 16:21:00,77.9,58.9,29.83,NNW,333,0.0,1.0,52,0.00,,---,0.00,VWS V14.00,2013-09-25 21:21:00,
2013-09-25 16:26:00,78.1,59.1,29.83,NNW,333,0.0,0.0,52,0.00,,---,0.00,VWS V14.00,2013-09-25 21:26:00,
2013-09-25 16:31:00,78.3,59.2,29.83,NNW,333,0.0,4.0,52,0.00,,---,0.00,VWS V14.00,2013-09-25 21:31:00,
2013-09-25 16:36:00,78.1,58.5,29.83,NNW,333,0.0,1.0,51,0.00,,---,0.00,VWS V14.00,2013-09-25 21:36:00,
2013-09-25 16:41:00,78.1,58.5,29.83,NNW,333,1.0,3.0,51,0.00,,---,0.00,VWS V14.00,2013-09-25 21:41:00,
2013-09-25 16:46:00,78.1,59.1,29.83,NNW,333,4.0,4.0,52,0.00,,---,0.00,VWS V14.00,2013-09-25 21:46:00,
2013-09-25 16:51:00,77.9,58.3,29.83,NNW,333,0.0,0.0,51,0.00,,---,0.00,VWS V14.00,2013-09-25 21:51:00,
2013-09-25 16:56:00,77.9,58.9,29.83,NNW,333,0.0,0.0,52,0.00,,---,0.00,VWS V14.00,2013-09-25 21:56:00,
2013-09-25 17:02:00,78.5,59.4,29.83,NNW,333,0.0,0.0,52,0.00,,---,0.00,VWS V14.00,2013-09-25 22:02:00,
2013-09-25 17:07:00,78.3,58.7,29.82,NNW,333,0.0,0.0,51,0.00,,---,0.00,VWS V14.00,2013-09-25 22:07:00,
2013-09-25 17:12:00,78.3,58.7,29.83,NNW,333,0.0,1.0,51,0.00,,---,0.00,VWS V14.00,2013-09-25 22:12:00,
2013-09-25 17:17:00,77.9,58.9,29.83,NNW,334,0.0,3.0,52,0.00,,---,0.00,VWS V14.00,2013-09-25 22:17:00,
2013-09-25 17:22:00,77.9,58.9,29.83,NNW,333,2.0,2.0,52,0.00,,---,0.00,VWS V14.00,2013-09-25 22:22:00,
2013-09-25 17:27:00,77.9,58.9,29.83,NNW,333,0.0,0.0,52,0.00,,---,0.00,VWS V14.00,2013-09-25 22:27:00,
2013-09-25 17:32:00,77.7,58.7,29.83,NNW,333,0.0,0.0,52,0.00,,---,0.00,VWS V14.00,2013-09-25 22:32:00,
2013-09-25 17:37:00,77.7,58.7,29.83,NNW,333,0.0,0.0,52,0.00,,---,0.00,VWS V14.00,2013-09-25 22:37:00,
2013-09-25 17:42:00,77.6,58.6,29.83,NNW,333,0.0,0.0,52,0.00,,---,0.00,VWS V14.00,2013-09-25 22:42:00,
2013-09-25 17:47:00,77.4,58.4,29.83,NNW,334,0.0,0.0,52,0.00,,---,0.00,VWS V14.00,2013-09-25 22:47:00,
2013-09-25 17:52:00,77.2,58.2,29.83,NNW,333,0.0,0.0,52,0.00,,---,0.00,VWS V14.00,2013-09-25 22:52:00,
2013-09-25 17:57:00,77.0,58.6,29.83,NNW,334,0.0,0.0,53,0.00,,---,0.00,VWS V14.00,2013-09-25 22:57:00,
2013-09-25 18:01:00,77.0,59.1,29.83,NNW,333,0.0,0.0,54,0.00,,---,0.00,VWS V14.00,2013-09-25 23:01:00,
2013-09-25 18:06:00,76.8,58.9,29.83,NNW,333,0.0,0.0,54,0.00,,---,0.00,VWS V14.00,2013-09-25 23:06:00,
2013-09-25 18:11:00,77.0,59.1,29.83,NNW,334,0.0,0.0,54,0.00,,---,0.00,VWS V14.00,2013-09-25 23:11:00,
2013-09-25 18:16:00,77.0,59.1,29.83,NNW,334,0.0,0.0,54,0.00,,---,0.00,VWS V14.00,2013-09-25 23:16:00,
2013-09-25 18:21:00,77.0,59.6,29.83,NNW,334,0.0,0.0,55,0.00,,---,0.00,VWS V14.00,2013-09-25 23:21:00,
2013-09-25 18:26:00,76.8,60.4,29.83,NNW,334,0.0,0.0,57,0.00,,---,0.00,VWS V14.00,2013-09-25 23:26:00,
2013-09-25 18:31:00,76.5,61.6,29.83,NNW,334,0.0,0.0,60,0.00,,---,0.00,VWS V14.00,2013-09-25 23:31:00,
2013-09-25 18:36:00,76.0,61.6,29.83,NNW,334,0.0,0.0,61,0.00,,---,0.00,VWS V14.00,2013-09-25 23:36:00,
2013-09-25 18:41:00,75.3,60.9,29.83,NNW,334,0.0,0.0,61,0.00,,---,0.00,VWS V14.00,2013-09-25 23:41:00,
2013-09-25 18:46:00,74.6,61.2,29.83,NNW,333,0.0,0.0,63,0.00,,---,0.00,VWS V14.00,2013-09-25 23:46:00,
2013-09-25 18:51:00,73.9,61.0,29.83,NNW,334,0.0,0.0,64,0.00,,---,0.00,VWS V14.00,2013-09-25 23:51:00,
2013-09-25 18:56:00,73.2,61.2,29.83,NNW,333,0.0,0.0,66,0.00,,---,0.00,VWS V14.00,2013-09-25 23:56:00,
2013-09-25 19:01:00,72.7,61.1,29.83,NNW,333,0.0,0.0,67,0.00,,---,0.00,VWS V14.00,2013-09-26 00:01:00,
2013-09-25 19:06:00,72.0,60.9,29.84,NNW,334,0.0,0.0,68,0.00,,---,0.00,VWS V14.00,2013-09-26 00:06:00,
2013-09-25 19:11:00,71.5,60.8,29.84,NNW,334,0.0,0.0,69,0.00,,---,0.00,VWS V14.00,2013-09-26 00:11:00,
2013-09-25 19:16:00,70.9,61.0,29.84,NNW,334,0.0,0.0,71,0.00,,---,0.00,VWS V14.00,2013-09-26 00:16:00,
2013-09-25 19:21:00,70.6,61.1,29.84,NNW,333,0.0,0.0,72,0.00,,---,0.00,VWS V14.00,2013-09-26 00:21:00,
2013-09-25 19:26:00,70.3,61.2,29.84,NNW,334,0.0,0.0,73,0.00,,---,0.00,VWS V14.00,2013-09-26 00:26:00,
2013-09-25 19:31:00,69.9,61.2,29.84,NNW,334,0.0,0.0,74,0.00,,---,0.00,VWS V14.00,2013-09-26 00:31:00,
2013-09-25 19:36:00,69.6,61.3,29.84,NNW,333,0.0,0.0,75,0.00,,---,0.00,VWS V14.00,2013-09-26 00:36:00,
2013-09-25 19:41:00,69.3,61.4,29.84,NNW,334,0.0,0.0,76,0.00,,---,0.00,VWS V14.00,2013-09-26 00:41:00,
2013-09-25 19:46:00,68.9,61.0,29.84,NNW,333,0.0,0.0,76,0.00,,---,0.00,VWS V14.00,2013-09-26 00:46:00,
2013-09-25 19:51:00,68.8,61.3,29.84,NNW,334,0.0,0.0,77,0.00,,---,0.00,VWS V14.00,2013-09-26 00:51:00,
2013-09-25 19:56:00,68.4,61.3,29.84,NNW,333,0.0,0.0,78,0.00,,---,0.00,VWS V14.00,2013-09-26 00:56:00,
2013-09-25 20:01:00,68.1,61.0,29.84,NNW,333,0.0,0.0,78,0.00,,---,0.00,VWS V14.00,2013-09-26 01:01:00,
2013-09-25 20:06:00,67.8,61.1,29.84,NNW,334,0.0,0.0,79,0.00,,---,0.00,VWS V14.00,2013-09-26 01:06:00,
2013-09-25 20:11:00,67.6,60.9,29.84,NNW,334,0.0,0.0,79,0.00,,---,0.00,VWS V14.00,2013-09-26 01:11:00,
2013-09-25 20:16:00,67.4,61.0,29.84,NNW,334,0.0,0.0,80,0.00,,---,0.00,VWS V14.00,2013-09-26 01:16:00,
2013-09-25 20:21:00,67.1,60.7,29.84,NNW,333,0.0,0.0,80,0.00,,---,0.00,VWS V14.00,2013-09-26 01:21:00,
2013-09-25 20:26:00,66.9,60.9,29.85,NNW,334,0.0,0.0,81,0.00,,---,0.00,VWS V14.00,2013-09-26 01:26:00,
2013-09-25 20:31:00,66.6,60.6,29.85,NNW,333,0.0,0.0,81,0.00,,---,0.00,VWS V14.00,2013-09-26 01:31:00,
2013-09-25 20:36:00,66.6,60.9,29.85,NNW,334,0.0,0.0,82,0.00,,---,0.00,VWS V14.00,2013-09-26 01:36:00,
2013-09-25 20:41:00,66.4,60.7,29.85,NNW,334,0.0,0.0,82,0.00,,---,0.00,VWS V14.00,2013-09-26 01:41:00,
2013-09-25 20:46:00,66.3,60.7,29.85,NNW,333,0.0,0.0,82,0.00,,---,0.00,VWS V14.00,2013-09-26 01:46:00,
2013-09-25 20:51:00,66.0,60.7,29.85,NNW,334,0.0,0.0,83,0.00,,---,0.00,VWS V14.00,2013-09-26 01:51:00,
2013-09-25 20:56:00,66.0,60.7,29.85,NNW,334,0.0,0.0,83,0.00,,---,0.00,VWS V14.00,2013-09-26 01:56:00,
2013-09-25 21:01:00,65.8,60.5,29.85,NNW,334,0.0,0.0,83,0.00,,---,0.00,VWS V14.00,2013-09-26 02:01:00,
2013-09-25 21:06:00,65.8,60.5,29.85,NNW,334,0.0,0.0,83,0.00,,---,0.00,VWS V14.00,2013-09-26 02:06:00,
2013-09-25 21:11:00,65.6,60.3,29.85,NNW,333,0.0,0.0,83,0.00,,---,0.00,VWS V14.00,2013-09-26 02:11:00,
2013-09-25 21:16:00,65.5,60.5,29.85,NNW,333,0.0,0.0,84,0.00,,---,0.00,VWS V14.00,2013-09-26 02:16:00,
2013-09-25 21:21:00,65.2,60.6,29.86,NNW,333,0.0,0.0,85,0.00,,---,0.00,VWS V14.00,2013-09-26 02:21:00,
2013-09-25 21:26:00,65.0,60.4,29.86,NNW,333,0.0,0.0,85,0.00,,---,0.00,VWS V14.00,2013-09-26 02:26:00,
2013-09-25 21:31:00,64.8,60.5,29.86,NNW,333,0.0,0.0,86,0.00,,---,0.00,VWS V14.00,2013-09-26 02:31:00,
2013-09-25 21:36:00,64.7,60.4,29.86,NNW,333,0.0,0.0,86,0.00,,---,0.00,VWS V14.00,2013-09-26 02:36:00,
2013-09-25 21:41:00,64.3,60.0,29.86,NNW,334,0.0,0.0,86,0.00,,---,0.00,VWS V14.00,2013-09-26 02:41:00,
2013-09-25 21:46:00,64.0,60.1,29.86,NNW,333,0.0,0.0,87,0.00,,---,0.00,VWS V14.00,2013-09-26 02:46:00,
2013-09-25 21:51:00,63.9,60.0,29.86,NNW,334,0.0,0.0,87,0.00,,---,0.00,VWS V14.00,2013-09-26 02:51:00,
2013-09-25 21:56:00,63.7,59.8,29.86,NNW,333,0.0,0.0,87,0.00,,---,0.00,VWS V14.00,2013-09-26 02:56:00,
2013-09-25 22:01:00,63.5,59.6,29.86,NNW,333,0.0,0.0,87,0.00,,---,0.00,VWS V14.00,2013-09-26 03:01:00,
2013-09-25 22:06:00,63.5,59.9,29.86,NNW,333,0.0,0.0,88,0.00,,---,0.00,VWS V14.00,2013-09-26 03:06:00,
2013-09-25 22:11:00,63.4,59.8,29.86,NNW,334,0.0,0.0,88,0.00,,---,0.00,VWS V14.00,2013-09-26 03:11:00,
2013-09-25 22:16:00,63.2,59.6,29.86,NNW,333,0.0,0.0,88,0.00,,---,0.00,VWS V14.00,2013-09-26 03:16:00,
2013-09-25 22:21:00,63.1,59.8,29.86,NNW,333,0.0,1.0,89,0.00,,---,0.00,VWS V14.00,2013-09-26 03:21:00,
2013-09-25 22:26:00,63.1,59.8,29.86,NNW,334,0.0,0.0,89,0.00,,---,0.00,VWS V14.00,2013-09-26 03:26:00,
2013-09-25 22:31:00,62.9,59.6,29.86,NNW,333,0.0,0.0,89,0.00,,---,0.00,VWS V14.00,2013-09-26 03:31:00,
2013-09-25 22:36:00,62.7,59.4,29.86,NNW,334,0.0,0.0,89,0.00,,---,0.00,VWS V14.00,2013-09-26 03:36:00,
2013-09-25 22:41:00,62.6,59.3,29.86,NNW,333,0.0,0.0,89,0.00,,---,0.00,VWS V14.00,2013-09-26 03:41:00,
2013-09-25 22:46:00,62.4,59.1,29.87,NNW,334,0.0,0.0,89,0.00,,---,0.00,VWS V14.00,2013-09-26 03:46:00,
2013-09-25 22:51:00,62.4,59.1,29.87,NNW,333,0.0,0.0,89,0.00,,---,0.00,VWS V14.00,2013-09-26 03:51:00,
2013-09-25 22:56:00,62.4,59.1,29.87,NNW,333,0.0,0.0,89,0.00,,---,0.00,VWS V14.00,2013-09-26 03:56:00,
2013-09-25 23:01:00,62.3,59.3,29.87,NNW,333,0.0,0.0,90,0.00,,---,0.00,VWS V14.00,2013-09-26 04:01:00,
2013-09-25 23:06:00,62.1,59.1,29.87,NNW,334,0.0,0.0,90,0.00,,---,0.00,VWS V14.00,2013-09-26 04:06:00,
2013-09-25 23:11:00,61.8,58.8,29.87,NNW,333,0.0,0.0,90,0.00,,---,0.00,VWS V14.00,2013-09-26 04:11:00,
2013-09-25 23:16:00,61.8,58.8,29.87,NNW,334,0.0,0.0,90,0.00,,---,0.00,VWS V14.00,2013-09-26 04:16:00,
2013-09-25 23:21:00,61.6,58.6,29.87,NNW,333,0.0,0.0,90,0.00,,---,0.00,VWS V14.00,2013-09-26 04:21:00,
2013-09-25 23:26:00,61.5,58.5,29.87,NNW,334,0.0,0.0,90,0.00,,---,0.00,VWS V14.00,2013-09-26 04:26:00,
2013-09-25 23:31:00,61.5,58.8,29.87,NNW,333,0.0,0.0,91,0.00,,---,0.00,VWS V14.00,2013-09-26 04:31:00,
2013-09-25 23:36:00,61.3,58.7,29.87,NNW,333,0.0,0.0,91,0.00,,---,0.00,VWS V14.00,2013-09-26 04:36:00,
2013-09-25 23:41:00,61.3,58.7,29.87,NNW,334,0.0,0.0,91,0.00,,---,0.00,VWS V14.00,2013-09-26 04:41:00,
2013-09-25 23:46:00,61.3,58.7,29.87,NNW,333,0.0,0.0,91,0.00,,---,0.00,VWS V14.00,2013-09-26 04:46:00,
2013-09-25 23:51:00,61.3,58.7,29.87,NNW,333,0.0,0.0,91,0.00,,---,0.00,VWS V14.00,2013-09-26 04:51:00,
2013-09-25 23:56:00,61.2,58.6,29.87,NNW,333,0.0,0.0,91,0.00,,---,0.00,VWS V14.00,2013-09-26 04:56:00,